Time;durP1;ratioP1;P1;durP2;ratioP2;P2;SDS_P1;SDS_P2;PMS_P1;PMS_P2;Temp;Humidity;BMP_temperature;BMP_pressure;BME280_temperature;BME280_humidity;BME280_pressure;Samples;Min_cycle;Max_cycle;Signal;HPM_P1;HPM_P2
2022/10/12 00:10:06;;;;;;;100.40;55.50;;;;;;;4.28;77.40;99602.95;423014;1293;98584;-39
2022/10/12 00:20:13;;;;;;;95.60;51.40;;;;;;;4.21;77.44;99598.47;422602;1292;108107;-40
2022/10/12 00:30:19;;;;;;;138.90;68.50;;;;;;;4.08;77.52;99598.33;422749;1291;97867;-40
2022/10/12 00:40:26;;;;;;;130.90;68.60;;;;;;;3.87;77.72;99603.52;422630;1293;111448;-40
2022/10/12 00:50:34;;;;;;;89.20;51.60;;;;;;;3.75;77.74;99600.82;422667;1285;108346;-40
2022/10/12 01:00:42;;;;;;;93.80;52.20;;;;;;;3.72;77.93;99603.08;422690;1293;96652;-40
2022/10/12 01:10:50;;;;;;;87.60;51.30;;;;;;;3.82;78.21;99607.57;422574;1292;108670;-40
2022/10/12 01:21:07;;;;;;;82.50;49.00;;;;;;;3.87;77.95;99607.41;423354;1258;108427;-39
2022/10/12 01:31:11;;;;;;;102.00;57.10;;;;;;;3.70;78.01;99609.87;421968;1279;97768;-40
2022/10/12 01:41:17;;;;;;;111.20;57.10;;;;;;;3.65;78.47;99609.35;422541;1287;97975;-39
2022/10/12 01:51:25;;;;;;;74.80;42.90;;;;;;;3.53;78.15;99610.50;422500;1274;98659;-39
2022/10/12 02:01:42;;;;;;;75.80;42.90;;;;;;;3.47;78.23;99609.70;422661;1291;98571;-40
2022/10/12 02:11:51;;;;;;;74.30;42.20;;;;;;;3.53;78.53;99614.67;422327;1286;108964;-39
2022/10/12 02:22:04;;;;;;;68.00;40.70;;;;;;;3.55;78.41;99613.91;422477;1293;107774;-39
2022/10/12 02:32:14;;;;;;;82.80;49.10;;;;;;;3.40;78.43;99614.04;422547;1294;97571;-40
2022/10/12 02:42:27;;;;;;;88.10;46.50;;;;;;;3.25;78.57;99617.35;422469;1287;108904;-39
2022/10/12 02:52:41;;;;;;;88.60;48.20;;;;;;;3.08;78.53;99614.31;422350;1287;108619;-39
2022/10/12 03:02:48;;;;;;;69.30;40.20;;;;;;;2.99;78.76;99616.05;422540;1287;107775;-40
2022/10/12 03:12:55;;;;;;;69.00;38.90;;;;;;;3.00;78.83;99616.11;422638;1287;98023;-39
2022/10/12 03:23:03;;;;;;;56.20;34.10;;;;;;;3.15;78.83;99620.23;422295;1294;107572;-39
2022/10/12 03:33:10;;;;;;;65.90;39.30;;;;;;;3.05;78.64;99617.34;422712;1294;97912;-40
2022/10/12 03:43:18;;;;;;;71.90;41.10;;;;;;;3.00;78.86;99616.98;422373;1287;110730;-40
2022/10/12 03:53:25;;;;;;;90.90;50.90;;;;;;;2.93;78.94;99614.23;422525;1288;109340;-40
2022/10/12 04:03:32;;;;;;;87.90;52.20;;;;;;;2.81;79.14;99614.36;422141;1294;97870;-39
2022/10/12 04:13:39;;;;;;;72.00;41.60;;;;;;;2.74;79.18;99617.92;422611;1288;110938;-39
2022/10/12 04:23:46;;;;;;;68.00;36.00;;;;;;;2.76;79.26;99621.33;422614;1294;108678;-40
2022/10/12 04:44:01;;;;;;;121.00;65.20;;;;;;;2.77;79.24;99634.80;422759;1295;106680;-39
2022/10/12 04:54:09;;;;;;;120.20;71.60;;;;;;;2.78;79.29;99635.11;422660;1291;97173;-38
2022/10/12 05:04:16;;;;;;;128.90;79.00;;;;;;;2.74;79.37;99632.38;422627;1294;110242;-39
2022/10/12 05:14:23;;;;;;;138.30;74.60;;;;;;;2.63;79.53;99633.69;422418;1294;107952;-39
2022/10/12 05:24:30;;;;;;;104.20;60.90;;;;;;;2.58;79.69;99639.92;422569;1287;108337;-39
2022/10/12 05:34:38;;;;;;;93.00;55.40;;;;;;;2.71;79.59;99646.07;422227;1290;97541;-40
2022/10/12 05:44:45;;;;;;;99.20;57.90;;;;;;;2.90;79.72;99649.08;422286;1287;108388;-39
2022/10/12 05:54:52;;;;;;;121.70;64.10;;;;;;;3.07;79.66;99651.94;421532;1294;97510;-38
2022/10/12 06:04:59;;;;;;;129.10;70.80;;;;;;;3.39;79.98;99654.23;422385;1288;109531;-40
2022/10/12 06:15:08;;;;;;;207.20;96.40;;;;;;;4.31;80.62;99651.70;422575;1294;106935;-39
2022/10/12 06:25:15;;;;;;;145.50;79.10;;;;;;;5.33;80.08;99653.60;422987;1294;98552;-40
2022/10/12 06:35:23;;;;;;;91.80;53.90;;;;;;;5.73;79.43;99661.54;422623;1286;110629;-39
2022/10/12 06:45:31;;;;;;;74.40;40.90;;;;;;;5.76;79.09;99670.52;422666;1294;107546;-39
2022/10/12 06:55:40;;;;;;;74.10;43.20;;;;;;;5.90;79.43;99671.48;422322;1294;97885;-39
2022/10/12 07:05:46;;;;;;;;;;;;;;;6.67;80.00;99670.08;422140;1294;109940;-39
2022/10/12 07:15:53;;;;;;;113.30;64.40;;;;;;;7.45;79.79;99673.98;422679;1295;108056;-39
2022/10/12 07:26:01;;;;;;;93.60;53.60;;;;;;;8.28;79.92;99673.30;422758;1294;97880;-39
2022/10/12 08:32:47;;;;;;;57.10;33.60;;;;;;;13.71;74.71;99655.39;412670;1325;649400;-39
2022/10/12 08:43:04;;;;;;;55.80;32.90;;;;;;;14.14;73.57;99656.71;419583;1306;95480;-40
2022/10/12 09:03:32;;;;;;;36.30;21.30;;;;;;;14.09;71.74;99650.90;419363;1306;107932;-40
2022/10/12 09:13:40;;;;;;;33.90;19.80;;;;;;;14.07;70.92;99650.52;419315;1306;108298;-39
2022/10/12 09:23:48;;;;;;;25.50;15.90;;;;;;;14.16;70.38;99656.60;419141;1304;95272;-40
2022/10/12 09:33:56;;;;;;;14.50;7.50;;;;;;;14.09;69.10;99656.76;419044;1302;95466;-39
2022/10/12 09:44:06;;;;;;;23.80;12.90;;;;;;;14.33;69.12;99646.69;419068;1306;106811;-39
2022/10/12 09:54:15;;;;;;;33.70;16.70;;;;;;;14.20;67.89;99651.39;418822;1306;108600;-41
2022/10/12 10:04:22;;;;;;;;;;;;;;;13.79;67.85;99651.98;419064;1307;106465;-41
2022/10/12 10:14:31;;;;;;;26.80;8.00;;;;;;;14.18;67.83;99652.02;419014;1306;95334;-40
2022/10/12 10:24:37;;;;;;;;;;;;;;;14.33;65.63;99648.28;418905;1306;97015;-40
2022/10/12 10:34:43;;;;;;;12.90;5.20;;;;;;;14.00;65.08;99644.60;419123;1305;95729;-40
2022/10/12 10:44:52;;;;;;;10.40;4.40;;;;;;;13.58;64.55;99638.02;419270;1289;106622;-40
2022/10/12 10:55:18;;;;;;;20.30;5.20;;;;;;;13.38;64.60;99634.55;418963;1302;96244;-39
2022/10/12 11:05:25;;;;;;;12.90;4.30;;;;;;;13.66;63.88;99627.41;419912;1305;108511;-40
2022/10/12 11:15:34;;;;;;;15.50;4.30;;;;;;;14.09;63.39;99618.81;420335;1296;108552;-40
2022/10/12 11:25:44;;;;;;;16.00;5.80;;;;;;;14.41;62.97;99614.14;418962;1295;108481;-43
2022/10/12 11:35:57;;;;;;;15.80;6.60;;;;;;;14.44;60.25;99616.17;418983;1304;96144;-40
2022/10/12 11:46:06;;;;;;;15.00;5.10;;;;;;;14.30;59.78;99608.34;418675;1306;96167;-40
2022/10/12 11:56:11;;;;;;;11.20;4.20;;;;;;;14.19;60.08;99602.79;419153;1288;108420;-40
2022/10/12 12:07:01;;;;;;;17.40;3.60;;;;;;;13.79;59.96;99604.50;419005;1305;96354;-41
2022/10/12 12:17:14;;;;;;;11.00;3.60;;;;;;;13.52;60.21;99604.66;418543;1306;108211;-40
2022/10/12 12:27:23;;;;;;;9.50;4.00;;;;;;;13.40;60.66;99598.57;420794;1301;96248;-41
2022/10/12 12:37:27;;;;;;;;;;;;;;;13.54;60.88;99585.20;420806;1299;96159;-41
2022/10/12 12:47:41;;;;;;;12.60;4.00;;;;;;;13.52;59.98;99587.63;420976;1299;96781;-41
2022/10/12 12:58:10;;;;;;;14.30;4.70;;;;;;;13.46;59.57;99585.58;420951;1304;109330;-41
2022/10/12 13:08:18;;;;;;;18.10;4.20;;;;;;;13.33;59.98;99577.04;420522;1299;96136;-40
2022/10/12 13:18:43;;;;;;;11.10;3.90;;;;;;;13.29;59.58;99572.09;420982;1300;96162;-40
2022/10/12 13:28:57;;;;;;;9.40;3.20;;;;;;;13.47;59.58;99565.20;421035;1300;110373;-40
2022/10/12 13:39:07;;;;;;;11.40;3.70;;;;;;;13.60;58.88;99560.25;420667;1297;106902;-39
2022/10/12 13:49:13;;;;;;;9.20;3.10;;;;;;;13.61;58.94;99558.92;421717;1297;108622;-41
2022/10/12 13:59:21;;;;;;;9.20;2.90;;;;;;;13.51;58.18;99559.14;421791;1296;96155;-40
2022/10/12 14:40:01;;;;;;;7.60;3.10;;;;;;;13.01;58.79;99536.19;421846;1290;96444;-40
2022/10/12 14:50:09;;;;;;;7.90;2.70;;;;;;;12.98;58.72;99529.48;422011;1297;96238;-40
2022/10/12 15:00:18;;;;;;;12.70;4.20;;;;;;;12.87;58.82;99519.45;422540;1289;109495;-40
2022/10/12 15:10:24;;;;;;;9.40;4.50;;;;;;;12.70;58.76;99516.83;421927;1295;106349;-40
2022/10/12 15:30:38;;;;;;;20.40;7.20;;;;;;;12.26;59.43;99510.85;420795;1301;96574;-40
2022/10/12 15:41:12;;;;;;;14.40;4.70;;;;;;;11.88;59.93;99516.59;420812;1299;95336;-39
2022/10/12 15:51:23;;;;;;;17.30;6.90;;;;;;;11.47;60.46;99520.54;422146;1296;108662;-41
2022/10/12 16:01:32;;;;;;;15.60;6.90;;;;;;;10.92;61.18;99522.90;422295;1291;107969;-40
2022/10/12 16:11:40;;;;;;;16.60;7.10;;;;;;;10.29;62.02;99527.45;422030;1290;96238;-40
2022/10/12 16:21:47;;;;;;;42.50;17.80;;;;;;;9.76;62.79;99538.45;422302;1302;108610;-40
2022/10/12 16:31:54;;;;;;;26.70;15.90;;;;;;;9.39;63.58;99537.20;422116;1297;108076;-40
2022/10/12 16:41:59;;;;;;;44.60;25.50;;;;;;;8.99;64.41;99536.98;422116;1295;96825;-42
2022/10/12 16:52:05;;;;;;;139.60;65.50;;;;;;;8.63;64.96;99535.47;422330;1289;95464;-40
2022/10/12 17:02:12;;;;;;;126.10;57.80;;;;;;;8.24;65.53;99537.23;422171;1299;106294;-39
2022/10/12 17:12:19;;;;;;;37.30;21.50;;;;;;;7.86;66.07;99535.23;421583;1295;96153;-41
2022/10/12 17:22:27;;;;;;;47.60;22.30;;;;;;;7.65;66.57;99538.77;422184;1302;110453;-40
2022/10/12 17:32:36;;;;;;;45.30;21.70;;;;;;;7.47;67.09;99537.63;422010;1294;107634;-40
2022/10/12 17:42:43;;;;;;;46.40;25.80;;;;;;;7.35;67.55;99536.33;422071;1295;96574;-40
2022/10/12 17:52:51;;;;;;;51.20;29.00;;;;;;;7.15;68.08;99527.00;421896;1303;107358;-39
2022/10/12 18:02:58;;;;;;;73.10;37.80;;;;;;;6.87;68.42;99518.23;422028;1302;107709;-39
2022/10/12 18:13:06;;;;;;;62.10;30.80;;;;;;;6.64;68.77;99523.23;422065;1287;95302;-40
2022/10/12 18:23:13;;;;;;;44.60;26.20;;;;;;;6.57;69.05;99527.42;421808;1295;107697;-40
2022/10/12 18:33:21;;;;;;;86.20;48.30;;;;;;;6.56;69.47;99529.84;421890;1296;107908;-41
2022/10/12 18:43:28;;;;;;;62.80;32.30;;;;;;;6.54;69.84;99527.90;421962;1299;96044;-40
2022/10/12 18:53:36;;;;;;;92.80;45.40;;;;;;;6.52;70.03;99534.23;421924;1299;109282;-39
2022/10/12 19:03:43;;;;;;;83.30;45.90;;;;;;;6.45;70.47;99532.64;421668;1296;109206;-40
2022/10/12 19:13:51;;;;;;;76.60;36.80;;;;;;;6.33;70.64;99535.70;421736;1302;109471;-41
2022/10/12 19:24:01;;;;;;;71.40;37.60;;;;;;;6.26;70.83;99539.85;421977;1297;96267;-39
2022/10/12 19:34:12;;;;;;;63.10;33.80;;;;;;;6.21;71.11;99537.59;422104;1296;109624;-40
2022/10/12 19:44:20;;;;;;;90.00;43.00;;;;;;;6.08;71.41;99540.24;421972;1296;107966;-41
2022/10/12 19:54:28;;;;;;;88.20;44.90;;;;;;;5.94;71.64;99542.30;422554;1295;96667;-40
2022/10/12 20:04:42;;;;;;;87.40;42.90;;;;;;;5.70;71.75;99543.14;422860;1285;96121;-40
2022/10/12 20:14:49;;;;;;;79.00;43.40;;;;;;;5.55;71.95;99534.61;422462;1296;108234;-40
2022/10/12 20:24:57;;;;;;;79.30;39.10;;;;;;;5.52;72.53;99531.83;422816;1296;108556;-41
2022/10/12 20:35:05;;;;;;;69.20;38.60;;;;;;;5.60;72.67;99536.06;422573;1296;372360;-39
2022/10/12 20:45:13;;;;;;;79.30;43.60;;;;;;;5.64;72.95;99537.30;423033;1294;106939;-39
2022/10/12 20:55:16;;;;;;;119.60;64.30;;;;;;;5.69;73.23;99539.19;422723;1296;96733;-40
2022/10/12 21:05:24;;;;;;;198.00;94.20;;;;;;;5.51;73.29;99536.00;422763;1281;96926;-39
2022/10/12 21:15:31;;;;;;;166.50;89.80;;;;;;;5.37;73.37;99539.20;422676;1296;107924;-40
2022/10/12 21:35:42;;;;;;;166.00;86.80;;;;;;;5.14;73.67;99540.94;422927;1288;110177;-39
2022/10/12 21:45:49;;;;;;;240.90;117.30;;;;;;;5.04;73.90;99537.95;422574;1287;108668;-40
2022/10/12 21:55:57;;;;;;;201.40;101.30;;;;;;;5.02;74.24;99536.10;422979;1296;96232;-40
2022/10/12 22:06:03;;;;;;;238.20;111.80;;;;;;;5.14;74.71;99534.09;422794;1295;109222;-40
2022/10/12 22:16:11;;;;;;;222.20;111.90;;;;;;;4.91;74.39;99531.62;422635;1294;107450;-40
2022/10/12 22:26:21;;;;;;;159.50;87.70;;;;;;;4.69;74.34;99529.16;422424;1286;107017;-40
2022/10/12 22:36:28;;;;;;;155.20;80.20;;;;;;;4.46;74.44;99523.68;422281;1292;96551;-41
2022/10/12 22:46:35;;;;;;;125.80;66.90;;;;;;;4.37;74.72;99514.77;422453;1286;108241;-39
2022/10/12 22:56:43;;;;;;;111.70;61.60;;;;;;;4.40;75.00;99515.77;422919;1296;108490;-40
2022/10/12 23:06:50;;;;;;;131.90;73.60;;;;;;;4.32;74.95;99509.52;422997;1294;96126;-39
2022/10/12 23:16:57;;;;;;;138.80;71.60;;;;;;;4.22;75.26;99507.71;422735;1296;96516;-41
2022/10/12 23:27:05;;;;;;;103.20;57.30;;;;;;;4.07;75.29;99514.52;422758;1291;108846;-39
2022/10/12 23:37:12;;;;;;;112.30;59.80;;;;;;;4.04;75.50;99504.90;422633;1296;108815;-40
2022/10/12 23:47:19;;;;;;;114.00;59.40;;;;;;;4.13;75.72;99507.08;422679;1294;96143;-40
2022/10/12 23:57:26;;;;;;;106.00;60.10;;;;;;;4.19;75.69;99514.05;422694;1280;108386;-39
